createdAt,value
2018-09-11T00:00:56.224Z,14.95
2018-09-11T00:01:56.272Z,14.89
2018-09-11T00:02:56.209Z,14.92
2018-09-11T00:03:56.190Z,14.89
2018-09-11T00:04:56.180Z,14.83
2018-09-11T00:05:56.173Z,14.92
2018-09-11T00:06:56.156Z,14.83
2018-09-11T00:07:56.178Z,14.95
2018-09-11T00:08:56.155Z,14.78
2018-09-11T00:09:56.123Z,14.79
2018-09-11T00:10:56.115Z,14.69
2018-09-11T00:11:56.107Z,14.71
2018-09-11T00:12:56.090Z,14.69
2018-09-11T00:13:56.128Z,14.69
2018-09-11T00:14:56.096Z,14.64
2018-09-11T00:15:56.058Z,14.63
2018-09-11T00:16:56.054Z,14.59
2018-09-11T00:17:56.034Z,14.55
2018-09-11T00:18:56.025Z,14.52
2018-09-11T00:19:56.078Z,14.52
2018-09-11T00:20:56.017Z,14.45
2018-09-11T00:21:55.991Z,14.51
2018-09-11T00:22:55.982Z,14.46
2018-09-11T00:23:55.970Z,14.49
2018-09-11T00:24:55.958Z,14.38
2018-09-11T00:25:55.978Z,14.36
2018-09-11T00:26:55.951Z,14.41
2018-09-11T00:27:55.928Z,14.48
2018-09-11T00:28:55.921Z,14.36
2018-09-11T00:29:55.904Z,14.44
2018-09-11T00:30:55.900Z,14.40
2018-09-11T00:31:55.922Z,14.38
2018-09-11T00:32:55.882Z,14.33
2018-09-11T00:33:55.861Z,14.38
2018-09-11T00:34:55.849Z,14.38
2018-09-11T00:35:55.842Z,14.38
2018-09-11T00:36:55.830Z,14.28
2018-09-11T00:37:55.862Z,14.36
2018-09-11T00:38:55.819Z,14.34
2018-09-11T00:39:55.801Z,14.36
2018-09-11T00:40:55.785Z,14.30
2018-09-11T00:41:55.775Z,14.40
2018-09-11T00:42:55.767Z,14.16
2018-09-11T00:43:55.784Z,14.22
2018-09-11T00:44:55.760Z,14.31
2018-09-11T00:45:55.734Z,14.23
2018-09-11T00:46:55.720Z,14.19
2018-09-11T00:47:55.714Z,14.26
2018-09-11T00:48:55.701Z,14.23
2018-09-11T00:49:55.732Z,14.26
2018-09-11T00:50:55.693Z,14.19
2018-09-11T00:51:55.678Z,14.19
2018-09-11T00:52:55.664Z,14.22
2018-09-11T00:53:55.645Z,14.13
2018-09-11T00:54:55.635Z,14.19
2018-09-11T00:55:55.655Z,14.12
2018-09-11T00:56:55.629Z,14.11
2018-09-11T00:57:55.602Z,14.05
2018-09-11T00:58:55.593Z,14.13
2018-09-11T00:59:55.583Z,14.08
2018-09-11T01:00:55.571Z,14.11
2018-09-11T01:01:55.590Z,14.16
2018-09-11T01:02:55.560Z,14.11
2018-09-11T01:03:55.537Z,14.08
2018-09-11T01:04:55.529Z,14.05
2018-09-11T01:05:55.522Z,14.09
2018-09-11T01:06:55.519Z,14.08
2018-09-11T01:07:55.533Z,14.08
2018-09-11T01:08:55.499Z,14.04
2018-09-11T01:09:55.472Z,14.01
2018-09-11T01:10:55.465Z,14.16
2018-09-11T01:11:55.455Z,14.11
2018-09-11T01:12:55.441Z,14.12
2018-09-11T01:13:55.475Z,14.12
2018-09-11T01:14:55.435Z,14.15
2018-09-11T01:15:55.408Z,14.18
2018-09-11T01:16:55.398Z,14.19
2018-09-11T01:17:55.392Z,14.18
2018-09-11T01:18:55.377Z,14.19
2018-09-11T01:19:55.400Z,14.13
2018-09-11T01:20:55.369Z,14.11
2018-09-11T01:21:55.347Z,14.12
2018-09-11T01:22:55.339Z,14.13
2018-09-11T01:23:55.322Z,14.16
2018-09-11T01:24:55.312Z,14.09
2018-09-11T01:25:55.338Z,14.11
2018-09-11T01:26:55.302Z,14.04
2018-09-11T01:27:55.295Z,14.09
2018-09-11T01:28:55.268Z,14.01
2018-09-11T01:29:55.258Z,13.96
2018-09-11T01:30:55.246Z,14.01
2018-09-11T01:31:55.269Z,14.08
2018-09-11T01:32:55.228Z,14.03
2018-09-11T01:33:55.222Z,14.01
2018-09-11T01:34:55.224Z,14.05
2018-09-11T01:35:55.192Z,14.04
2018-09-11T01:36:55.186Z,14.03
2018-09-11T01:37:55.205Z,13.90
2018-09-11T01:38:55.162Z,13.98
2018-09-11T01:39:55.150Z,13.98
2018-09-11T01:40:55.154Z,13.91
2018-09-11T01:41:55.133Z,13.94
2018-09-11T01:42:55.120Z,13.86
2018-09-11T01:43:55.156Z,13.79
2018-09-11T01:44:55.097Z,13.85
2018-09-11T01:45:55.088Z,13.80
2018-09-11T01:46:55.097Z,13.79
2018-09-11T01:47:55.063Z,13.78
2018-09-11T01:48:55.056Z,13.76
2018-09-11T01:49:55.074Z,13.78
2018-09-11T01:50:55.037Z,13.78
2018-09-11T01:51:55.022Z,13.76
2018-09-11T01:52:55.020Z,13.79
2018-09-11T01:53:55.004Z,13.71
2018-09-11T01:54:54.989Z,13.78
2018-09-11T01:55:55.008Z,13.72
2018-09-11T01:56:54.967Z,13.68
2018-09-11T01:57:54.956Z,13.63
2018-09-11T01:58:54.949Z,13.73
2018-09-11T01:59:54.940Z,13.73
2018-09-11T02:00:54.931Z,13.78
2018-09-11T02:01:54.949Z,13.76
2018-09-11T02:02:54.902Z,13.80
2018-09-11T02:03:54.891Z,13.80
2018-09-11T02:04:54.882Z,13.80
2018-09-11T02:05:54.872Z,13.79
2018-09-11T02:06:54.893Z,13.78
2018-09-11T02:07:54.880Z,13.78
2018-09-11T02:08:54.839Z,13.82
2018-09-11T02:09:54.829Z,13.72
2018-09-11T02:10:54.816Z,13.76
2018-09-11T02:11:54.807Z,13.72
2018-09-11T02:12:54.806Z,13.71
2018-09-11T02:13:54.816Z,13.71
2018-09-11T02:14:54.775Z,13.79
2018-09-11T02:15:54.763Z,13.64
2018-09-11T02:16:54.752Z,13.61
2018-09-11T02:17:54.739Z,13.60
2018-09-11T02:18:54.744Z,13.63
2018-09-11T02:19:54.757Z,13.55
2018-09-11T02:20:54.711Z,13.63
2018-09-11T02:21:54.697Z,13.60
2018-09-11T02:22:54.690Z,13.58
2018-09-11T02:23:54.675Z,13.63
2018-09-11T02:24:54.681Z,13.46
2018-09-11T02:25:54.688Z,13.64
2018-09-11T02:26:54.644Z,13.47
2018-09-11T02:27:54.631Z,13.47
2018-09-11T02:28:54.626Z,13.51
2018-09-11T02:29:54.611Z,13.55
2018-09-11T02:30:54.622Z,13.63
2018-09-11T02:31:54.621Z,13.51
2018-09-11T02:32:54.587Z,13.47
2018-09-11T02:33:54.569Z,13.45
2018-09-11T02:34:54.558Z,13.53
2018-09-11T02:35:54.797Z,13.46
2018-09-11T02:36:54.551Z,13.57
2018-09-11T02:37:54.565Z,13.53
2018-09-11T02:38:54.516Z,13.55
2018-09-11T02:39:54.504Z,13.55
2018-09-11T02:40:54.494Z,13.51
2018-09-11T02:41:54.481Z,13.55
2018-09-11T02:42:54.480Z,13.47
2018-09-11T02:43:54.493Z,13.53
2018-09-11T02:44:54.450Z,13.57
2018-09-11T02:45:54.438Z,13.46
2018-09-11T02:46:54.432Z,13.51
2018-09-11T02:47:54.419Z,13.51
2018-09-11T02:48:54.429Z,13.45
2018-09-11T02:49:54.436Z,13.45
2018-09-11T02:50:54.383Z,13.42
2018-09-11T02:51:54.379Z,13.43
2018-09-11T02:52:54.362Z,13.39
2018-09-11T02:53:54.352Z,13.36
2018-09-11T02:54:54.353Z,13.35
2018-09-11T02:55:54.386Z,13.43
2018-09-11T02:56:54.322Z,13.38
2018-09-11T02:57:54.310Z,13.40
2018-09-11T02:58:54.298Z,13.38
2018-09-11T02:59:54.290Z,13.38
2018-09-11T03:00:54.277Z,13.39
2018-09-11T03:01:54.314Z,13.38
2018-09-11T03:02:54.260Z,13.24
2018-09-11T03:03:54.245Z,13.35
2018-09-11T03:04:54.234Z,13.32
2018-09-11T03:05:54.221Z,13.30
2018-09-11T03:06:54.212Z,13.27
2018-09-11T03:07:54.256Z,13.20
2018-09-11T03:08:54.195Z,13.19
2018-09-11T03:09:54.177Z,13.21
2018-09-11T03:10:54.168Z,13.24
2018-09-11T03:11:54.158Z,13.27
2018-09-11T03:12:54.149Z,13.27
2018-09-11T03:13:54.190Z,13.24
2018-09-11T03:14:54.124Z,13.19
2018-09-11T03:15:54.119Z,13.27
2018-09-11T03:16:54.106Z,13.24
2018-09-11T03:17:54.091Z,13.24
2018-09-11T03:18:54.211Z,13.23
2018-09-11T03:19:54.116Z,13.20
2018-09-11T03:20:54.059Z,13.20
2018-09-11T03:21:54.050Z,13.24
2018-09-11T03:22:54.038Z,13.23
2018-09-11T03:23:54.034Z,13.24
2018-09-11T03:24:54.020Z,13.23
2018-09-11T03:25:54.046Z,13.20
2018-09-11T03:26:53.993Z,13.19
2018-09-11T03:27:53.986Z,13.24
2018-09-11T03:28:53.972Z,13.21
2018-09-11T03:29:53.962Z,13.21
2018-09-11T03:30:53.951Z,13.14
2018-09-11T03:31:53.997Z,13.19
2018-09-11T03:32:53.929Z,13.16
2018-09-11T03:33:53.919Z,13.14
2018-09-11T03:34:53.909Z,13.14
2018-09-11T03:35:53.897Z,13.14
2018-09-11T03:36:53.889Z,13.14
2018-09-11T03:37:53.905Z,13.14
2018-09-11T03:38:53.863Z,13.16
2018-09-11T03:39:53.853Z,13.13
2018-09-11T03:40:53.841Z,13.17
2018-09-11T03:41:53.833Z,13.06
2018-09-11T03:42:53.823Z,13.06
2018-09-11T03:43:53.848Z,13.02
2018-09-11T03:44:53.803Z,12.99
2018-09-11T03:45:53.798Z,13.08
2018-09-11T03:46:53.841Z,13.09
2018-09-11T03:47:53.776Z,13.06
2018-09-11T03:48:53.765Z,13.05
2018-09-11T03:49:53.825Z,13.06
2018-09-11T03:50:53.745Z,13.02
2018-09-11T03:51:53.746Z,13.04
2018-09-11T03:52:53.743Z,13.09
2018-09-11T03:53:53.717Z,13.08
2018-09-11T03:54:53.691Z,13.06
2018-09-11T03:55:53.733Z,13.04
2018-09-11T03:56:53.667Z,13.02
2018-09-11T03:57:53.656Z,13.16
2018-09-11T03:58:53.673Z,13.08
2018-09-11T03:59:53.640Z,13.08
2018-09-11T04:00:53.643Z,13.04
2018-09-11T04:01:53.647Z,13.08
2018-09-11T04:02:53.630Z,13.05
2018-09-11T04:04:01.593Z,13.06
2018-09-11T04:04:53.580Z,13.06
2018-09-11T04:06:01.130Z,13.05
2018-09-11T04:07:02.755Z,13.05
2018-09-11T04:07:53.549Z,13.16
2018-09-11T04:09:01.594Z,13.17
2018-09-11T04:09:53.532Z,13.16
2018-09-11T04:10:53.514Z,13.14
2018-09-11T04:11:53.503Z,13.23
2018-09-11T04:12:53.524Z,13.19
2018-09-11T04:13:53.482Z,13.16
2018-09-11T04:14:53.471Z,13.20
2018-09-11T04:15:53.465Z,13.16
2018-09-11T04:16:53.469Z,13.08
2018-09-11T04:17:53.451Z,13.13
2018-09-11T04:18:53.478Z,13.09
2018-09-11T04:19:53.419Z,13.17
2018-09-11T04:20:53.427Z,13.08
2018-09-11T04:21:53.400Z,13.17
2018-09-11T04:22:53.425Z,13.11
2018-09-11T04:23:53.373Z,13.20
2018-09-11T04:24:53.416Z,13.20
2018-09-11T04:25:53.355Z,13.20
2018-09-11T04:26:53.342Z,13.20
2018-09-11T04:27:53.336Z,13.20
2018-09-11T04:28:53.518Z,13.16
2018-09-11T04:29:53.368Z,13.26
2018-09-11T04:30:53.347Z,13.13
2018-09-11T04:31:53.303Z,13.14
2018-09-11T04:32:53.273Z,13.16
2018-09-11T04:33:53.277Z,13.19
2018-09-11T04:34:53.255Z,13.13
2018-09-11T04:35:53.241Z,13.20
2018-09-11T04:36:53.294Z,13.17
2018-09-11T04:37:53.222Z,13.09
2018-09-11T04:38:53.210Z,13.19
2018-09-11T04:39:53.197Z,13.19
2018-09-11T04:40:53.189Z,13.14
2018-09-11T04:41:53.193Z,13.08
2018-09-11T04:42:53.218Z,13.05
2018-09-11T04:43:53.157Z,13.05
2018-09-11T04:44:53.144Z,13.04
2018-09-11T04:45:53.138Z,13.08
2018-09-11T04:46:53.122Z,13.02
2018-09-11T04:47:53.120Z,13.02
2018-09-11T04:48:53.146Z,12.96
2018-09-11T04:49:53.087Z,12.93
2018-09-11T04:50:53.079Z,12.96
2018-09-11T04:51:53.067Z,12.98
2018-09-11T04:52:53.808Z,12.93
2018-09-11T04:53:54.108Z,12.93
2018-09-11T04:54:53.044Z,12.98
2018-09-11T04:55:53.075Z,12.99
2018-09-11T04:56:53.011Z,12.98
2018-09-11T04:57:53.001Z,12.98
2018-09-11T04:58:52.991Z,12.90
2018-09-11T04:59:53.017Z,13.05
2018-09-11T05:00:52.970Z,13.09
2018-09-11T05:01:52.969Z,13.05
2018-09-11T05:02:52.960Z,13.19
2018-09-11T05:03:52.939Z,13.16
2018-09-11T05:04:52.932Z,13.17
2018-09-11T05:05:52.987Z,13.16
2018-09-11T05:06:52.910Z,13.23
2018-09-11T05:07:52.983Z,13.21
2018-09-11T05:08:52.887Z,13.23
2018-09-11T05:09:52.886Z,13.23
2018-09-11T05:10:52.864Z,13.29
2018-09-11T05:11:52.909Z,13.21
2018-09-11T05:12:52.852Z,13.29
2018-09-11T05:13:52.833Z,13.30
2018-09-11T05:14:52.862Z,13.35
2018-09-11T05:15:52.810Z,13.30
2018-09-11T05:16:52.803Z,13.40
2018-09-11T05:17:52.829Z,13.49
2018-09-11T05:18:52.784Z,13.43
2018-09-11T05:19:52.769Z,13.53
2018-09-11T05:20:52.770Z,13.46
2018-09-11T05:21:52.784Z,13.54
2018-09-11T05:22:52.735Z,13.53
2018-09-11T05:23:52.769Z,13.57
2018-09-11T05:24:52.736Z,13.53
2018-09-11T05:25:52.706Z,13.54
2018-09-11T05:26:52.688Z,13.53
2018-09-11T05:27:52.680Z,13.60
2018-09-11T05:28:52.666Z,13.68
2018-09-11T05:29:52.691Z,13.61
2018-09-11T05:30:52.661Z,13.64
2018-09-11T05:31:52.649Z,13.65
2018-09-11T05:32:52.623Z,13.64
2018-09-11T05:33:52.634Z,13.76
2018-09-11T05:34:52.602Z,13.79
2018-09-11T05:35:52.631Z,13.86
2018-09-11T05:36:52.591Z,13.90
2018-09-11T05:37:52.578Z,13.94
2018-09-11T05:38:52.593Z,13.90
2018-09-11T05:39:52.556Z,13.93
2018-09-11T05:40:52.541Z,13.97
2018-09-11T05:41:52.580Z,13.93
2018-09-11T05:42:52.520Z,13.91
2018-09-11T05:43:52.517Z,13.93
2018-09-11T05:44:52.497Z,13.91
2018-09-11T05:45:52.495Z,13.94
2018-09-11T05:46:52.492Z,13.97
2018-09-11T05:47:52.497Z,14.00
2018-09-11T05:48:52.486Z,14.08
2018-09-11T05:49:52.443Z,14.08
2018-09-11T05:50:52.433Z,14.13
2018-09-11T05:51:52.429Z,14.09
2018-09-11T05:52:52.447Z,14.18
2018-09-11T05:53:52.437Z,14.12
2018-09-11T05:54:52.394Z,14.19
2018-09-11T05:55:52.384Z,14.16
2018-09-11T05:56:52.368Z,14.19
2018-09-11T05:57:52.350Z,14.15
2018-09-11T05:58:52.352Z,14.18
2018-09-11T05:59:52.382Z,14.21
2018-09-11T06:00:52.319Z,14.30
2018-09-11T06:01:52.306Z,14.26
2018-09-11T06:02:52.296Z,14.22
2018-09-11T06:03:52.294Z,14.21
2018-09-11T06:04:52.289Z,14.21
2018-09-11T06:05:52.318Z,14.23
2018-09-11T06:06:52.252Z,14.31
2018-09-11T06:07:52.242Z,14.36
2018-09-11T06:08:52.249Z,14.31
2018-09-11T06:09:52.224Z,14.31
2018-09-11T06:10:52.224Z,14.36
2018-09-11T06:11:52.247Z,14.46
2018-09-11T06:12:52.211Z,14.36
2018-09-11T06:13:52.184Z,14.40
2018-09-11T06:14:52.167Z,14.51
2018-09-11T06:15:52.160Z,14.44
2018-09-11T06:16:52.148Z,14.48
2018-09-11T06:17:52.165Z,14.44
2018-09-11T06:18:52.120Z,14.45
2018-09-11T06:19:52.127Z,14.41
2018-09-11T06:20:52.104Z,14.44
2018-09-11T06:21:52.094Z,14.55
2018-09-11T06:22:52.078Z,14.49
2018-09-11T06:23:52.125Z,14.49
2018-09-11T06:24:52.060Z,14.46
2018-09-11T06:25:52.173Z,14.52
2018-09-11T06:26:52.053Z,14.48
2018-09-11T06:27:52.031Z,14.52
2018-09-11T06:28:52.018Z,14.58
2018-09-11T06:29:52.047Z,14.53
2018-09-11T06:30:51.992Z,14.63
2018-09-11T06:31:51.980Z,14.59
2018-09-11T06:32:51.980Z,14.66
2018-09-11T06:33:51.971Z,14.61
2018-09-11T06:34:51.946Z,14.70
2018-09-11T06:35:51.972Z,14.69
2018-09-11T06:36:51.929Z,14.69
2018-09-11T06:37:51.918Z,14.82
2018-09-11T06:38:51.919Z,14.82
2018-09-11T06:39:51.906Z,14.92
2018-09-11T06:40:51.923Z,14.95
2018-09-11T06:41:51.910Z,15.04
2018-09-11T06:42:51.865Z,15.10
2018-09-11T06:43:51.853Z,15.17
2018-09-11T06:44:51.867Z,15.19
2018-09-11T06:45:51.826Z,15.23
2018-09-11T06:46:51.846Z,15.29
2018-09-11T06:47:51.853Z,15.27
2018-09-11T06:48:51.797Z,15.32
2018-09-11T06:49:51.784Z,15.43
2018-09-11T06:50:51.776Z,15.50
2018-09-11T06:51:51.768Z,15.60
2018-09-11T06:52:51.761Z,15.58
2018-09-11T06:53:51.781Z,15.62
2018-09-11T06:54:51.868Z,15.73
2018-09-11T06:55:51.712Z,15.78
2018-09-11T06:56:51.706Z,15.84
2018-09-11T06:57:51.689Z,15.93
2018-09-11T06:58:51.692Z,15.98
2018-09-11T06:59:51.725Z,16.05
2018-09-11T07:00:51.655Z,15.96
2018-09-11T07:01:51.694Z,16.14
2018-09-11T07:02:51.637Z,16.22
2018-09-11T07:03:51.624Z,16.32
2018-09-11T07:04:51.611Z,16.39
2018-09-11T07:05:51.653Z,16.54
2018-09-11T07:06:51.595Z,16.54
2018-09-11T07:07:51.598Z,16.57
2018-09-11T07:08:51.580Z,16.72
2018-09-11T07:09:51.555Z,16.73
2018-09-11T07:10:51.550Z,16.82
2018-09-11T07:11:51.566Z,16.94
2018-09-11T07:12:51.525Z,16.95
2018-09-11T07:13:51.517Z,16.99
2018-09-11T07:14:51.554Z,17.02
2018-09-11T07:15:51.497Z,17.10
2018-09-11T07:16:51.484Z,17.14
2018-09-11T07:17:51.520Z,17.31
2018-09-11T07:18:51.459Z,17.30
2018-09-11T07:19:51.586Z,17.35
2018-09-11T07:20:51.434Z,17.41
2018-09-11T07:21:51.426Z,17.49
2018-09-11T07:22:51.421Z,17.43
2018-09-11T07:23:51.465Z,17.50
2018-09-11T07:24:51.392Z,17.52
2018-09-11T07:25:51.390Z,17.50
2018-09-11T07:26:51.368Z,17.63
2018-09-11T07:27:51.363Z,17.59
2018-09-11T07:28:51.358Z,17.73
2018-09-11T07:29:51.378Z,17.76
2018-09-11T07:30:51.356Z,17.79
2018-09-11T07:31:51.323Z,17.87
2018-09-11T07:32:51.303Z,17.83
2018-09-11T07:33:51.293Z,17.91
2018-09-11T07:34:51.296Z,17.93
2018-09-11T07:35:51.302Z,17.91
2018-09-11T07:36:51.283Z,17.91
2018-09-11T07:37:51.269Z,17.88
2018-09-11T07:38:51.259Z,17.97
2018-09-11T07:39:51.227Z,17.99
2018-09-11T07:40:51.226Z,18.09
2018-09-11T07:41:51.271Z,18.12
2018-09-11T07:42:51.214Z,18.08
2018-09-11T07:43:51.202Z,18.02
2018-09-11T07:44:51.183Z,18.15
2018-09-11T07:45:51.166Z,18.02
2018-09-11T07:46:51.152Z,18.06
2018-09-11T07:47:51.183Z,18.09
2018-09-11T07:48:51.137Z,18.11
2018-09-11T07:49:51.120Z,18.06
2018-09-11T07:50:51.108Z,18.13
2018-09-11T07:51:51.098Z,18.23
2018-09-11T07:52:51.147Z,18.39
2018-09-11T07:53:51.116Z,18.51
2018-09-11T07:54:51.065Z,18.52
2018-09-11T07:55:51.095Z,18.63
2018-09-11T07:56:51.043Z,18.61
2018-09-11T07:57:51.091Z,18.67
2018-09-11T07:58:51.028Z,18.75
2018-09-11T07:59:51.062Z,18.83
2018-09-11T08:00:51.020Z,18.97
2018-09-11T08:01:50.988Z,19.01
2018-09-11T08:02:50.983Z,19.16
2018-09-11T08:03:50.975Z,19.12
2018-09-11T08:04:50.957Z,19.15
2018-09-11T08:05:50.983Z,19.20
2018-09-11T08:06:51.025Z,19.26
2018-09-11T08:07:50.928Z,19.27
2018-09-11T08:08:50.918Z,19.31
2018-09-11T08:09:50.904Z,19.47
2018-09-11T08:10:50.890Z,19.47
2018-09-11T08:11:50.953Z,19.59
2018-09-11T08:12:50.875Z,19.74
2018-09-11T08:13:50.858Z,19.92
2018-09-11T08:14:50.852Z,19.92
2018-09-11T08:15:50.846Z,20.02
2018-09-11T08:16:50.824Z,19.94
2018-09-11T08:17:50.918Z,19.99
2018-09-11T08:18:50.826Z,19.96
2018-09-11T08:19:50.863Z,20.05
2018-09-11T08:20:50.781Z,20.15
2018-09-11T08:21:50.797Z,20.22
2018-09-11T08:22:50.759Z,20.26
2018-09-11T08:23:50.779Z,20.32
2018-09-11T08:24:50.756Z,20.49
2018-09-11T08:25:50.728Z,20.55
2018-09-11T08:26:50.722Z,20.63
2018-09-11T08:27:50.709Z,20.64
2018-09-11T08:28:50.690Z,20.75
2018-09-11T08:29:50.710Z,20.73
2018-09-11T08:30:50.697Z,20.82
2018-09-11T08:31:50.657Z,20.80
2018-09-11T08:32:50.647Z,20.88
2018-09-11T08:33:50.636Z,20.90
2018-09-11T08:34:50.628Z,20.98
2018-09-11T08:35:50.657Z,21.04
2018-09-11T08:36:50.635Z,21.13
2018-09-11T08:37:50.608Z,21.28
2018-09-11T08:38:50.579Z,21.25
2018-09-11T08:39:50.575Z,21.25
2018-09-11T08:40:50.607Z,21.38
2018-09-11T08:41:50.581Z,21.41
2018-09-11T08:42:50.536Z,21.48
2018-09-11T08:43:50.548Z,21.60
2018-09-11T08:44:50.521Z,21.73
2018-09-11T08:45:50.504Z,21.78
2018-09-11T08:46:50.591Z,21.81
2018-09-11T08:47:50.517Z,21.82
2018-09-11T08:48:50.476Z,21.65
2018-09-11T08:49:50.485Z,21.77
2018-09-11T08:50:50.457Z,21.74
2018-09-11T08:51:50.444Z,21.80
2018-09-11T08:52:50.497Z,21.91
2018-09-11T08:53:50.462Z,21.97
2018-09-11T08:54:50.412Z,22.01
2018-09-11T08:55:50.408Z,22.09
2018-09-11T08:56:50.396Z,21.97
2018-09-11T08:57:50.373Z,21.96
2018-09-11T08:58:50.367Z,22.21
2018-09-11T08:59:50.387Z,22.27
2018-09-11T09:00:50.350Z,22.30
2018-09-11T09:01:50.363Z,22.38
2018-09-11T09:02:50.321Z,22.43
2018-09-11T09:03:50.311Z,22.44
2018-09-11T09:04:50.297Z,22.40
2018-09-11T09:05:50.328Z,22.43
2018-09-11T09:06:50.298Z,22.38
2018-09-11T09:07:50.265Z,22.36
2018-09-11T09:08:50.271Z,22.40
2018-09-11T09:09:50.249Z,22.31
2018-09-11T09:10:50.241Z,22.34
2018-09-11T09:11:50.266Z,22.37
2018-09-11T09:12:50.222Z,22.43
2018-09-11T09:13:50.203Z,22.46
2018-09-11T09:14:50.201Z,22.46
2018-09-11T09:15:50.191Z,22.59
2018-09-11T09:16:50.176Z,22.66
2018-09-11T09:17:50.193Z,22.55
2018-09-11T09:18:50.148Z,22.59
2018-09-11T09:19:50.137Z,22.58
2018-09-11T09:20:50.210Z,22.59
2018-09-11T09:21:50.120Z,22.64
2018-09-11T09:22:50.110Z,22.70
2018-09-11T09:23:50.125Z,22.76
2018-09-11T09:24:50.088Z,22.73
2018-09-11T09:25:50.075Z,22.80
2018-09-11T09:26:50.078Z,22.74
2018-09-11T09:27:50.056Z,22.88
2018-09-11T09:28:50.042Z,22.98
2018-09-11T09:29:50.071Z,23.03
2018-09-11T09:30:50.043Z,23.10
2018-09-11T09:31:50.010Z,23.22
2018-09-11T09:32:50.028Z,23.18
2018-09-11T09:33:49.999Z,23.28
2018-09-11T09:34:49.992Z,23.28
2018-09-11T09:35:50.001Z,23.26
2018-09-11T09:36:49.965Z,23.37
2018-09-11T09:37:49.948Z,23.41
2018-09-11T09:38:49.935Z,23.45
2018-09-11T09:39:49.939Z,23.29
2018-09-11T09:40:49.924Z,23.48
2018-09-11T09:41:49.951Z,23.42
2018-09-11T09:42:49.902Z,23.46
2018-09-11T09:43:49.903Z,23.60
2018-09-11T09:44:49.878Z,23.64
2018-09-11T09:45:49.880Z,23.73
2018-09-11T09:46:49.911Z,23.85
2018-09-11T09:47:49.898Z,23.82
2018-09-11T09:48:49.829Z,23.92
2018-09-11T09:49:49.824Z,23.91
2018-09-11T09:50:49.891Z,23.89
2018-09-11T09:51:49.839Z,24.04
2018-09-11T09:52:49.820Z,24.00
2018-09-11T09:53:49.810Z,24.08
2018-09-11T09:54:49.764Z,24.03
2018-09-11T09:55:49.758Z,24.04
2018-09-11T09:56:49.744Z,24.03
2018-09-11T09:57:49.737Z,24.06
2018-09-11T09:58:49.737Z,24.19
2018-09-11T09:59:49.746Z,24.33
2018-09-11T10:00:49.700Z,24.33
2018-09-11T10:01:49.684Z,24.34
2018-09-11T10:02:49.680Z,24.29
2018-09-11T10:03:49.665Z,24.23
2018-09-11T10:04:49.728Z,24.23
2018-09-11T10:05:49.692Z,24.08
2018-09-11T10:06:49.629Z,24.11
2018-09-11T10:07:49.617Z,24.08
2018-09-11T10:08:49.609Z,24.11
2018-09-11T10:09:49.597Z,24.26
2018-09-11T10:10:49.614Z,24.43
2018-09-11T10:11:49.661Z,24.51
2018-09-11T10:12:49.570Z,24.65
2018-09-11T10:13:49.554Z,24.66
2018-09-11T10:14:49.542Z,24.63
2018-09-11T10:15:49.527Z,24.58
2018-09-11T10:16:49.537Z,24.58
2018-09-11T10:17:49.546Z,24.45
2018-09-11T10:18:49.497Z,24.40
2018-09-11T10:19:49.488Z,24.40
2018-09-11T10:20:49.479Z,24.43
2018-09-11T10:21:49.465Z,24.52
2018-09-11T10:22:49.462Z,24.56
2018-09-11T10:23:49.487Z,24.60
2018-09-11T10:24:49.437Z,24.53
2018-09-11T10:25:49.432Z,24.55
2018-09-11T10:26:49.456Z,24.60
2018-09-11T10:27:49.398Z,24.66
2018-09-11T10:28:49.419Z,24.79
2018-09-11T10:29:49.411Z,24.96
2018-09-11T10:30:49.367Z,25.04
2018-09-11T10:31:49.358Z,25.18
2018-09-11T10:32:49.343Z,25.19
2018-09-11T10:33:49.354Z,25.11
2018-09-11T10:34:49.332Z,24.99
2018-09-11T10:35:49.387Z,24.99
2018-09-11T10:36:49.299Z,24.93
2018-09-11T10:37:49.293Z,24.91
2018-09-11T10:38:49.273Z,24.99
2018-09-11T10:39:49.265Z,25.14
2018-09-11T10:40:49.253Z,25.31
2018-09-11T10:41:49.294Z,25.28
2018-09-11T10:42:49.232Z,25.31
2018-09-11T10:43:49.214Z,25.09
2018-09-11T10:44:49.217Z,25.27
2018-09-11T10:45:49.196Z,25.27
2018-09-11T10:46:49.182Z,25.30
2018-09-11T10:47:49.223Z,25.52
2018-09-11T10:48:49.168Z,25.52
2018-09-11T10:49:49.155Z,25.61
2018-09-11T10:50:49.137Z,25.49
2018-09-11T10:51:49.169Z,25.46
2018-09-11T10:52:49.118Z,25.48
2018-09-11T10:53:49.148Z,25.52
2018-09-11T10:54:49.095Z,25.52
2018-09-11T10:55:49.086Z,25.59
2018-09-11T10:56:49.072Z,25.61
2018-09-11T10:57:49.065Z,25.58
2018-09-11T10:58:49.056Z,25.63
2018-09-11T10:59:49.102Z,25.66
2018-09-11T11:00:49.028Z,25.70
2018-09-11T11:01:49.026Z,25.66
2018-09-11T11:02:49.007Z,25.67
2018-09-11T11:03:49.001Z,25.59
2018-09-11T11:04:48.984Z,25.68
2018-09-11T11:05:49.024Z,25.64
2018-09-11T11:06:48.966Z,25.68
2018-09-11T11:07:48.954Z,25.66
2018-09-11T11:08:48.947Z,25.75
2018-09-11T11:09:48.938Z,25.73
2018-09-11T11:10:48.926Z,25.64
2018-09-11T11:11:48.973Z,25.68
2018-09-11T11:12:48.905Z,25.77
2018-09-11T11:13:48.891Z,25.77
2018-09-11T11:14:48.879Z,25.82
2018-09-11T11:15:48.868Z,25.88
2018-09-11T11:16:48.860Z,25.98
2018-09-11T11:17:48.912Z,26.00
2018-09-11T11:18:48.839Z,25.86
2018-09-11T11:19:48.827Z,25.75
2018-09-11T11:20:48.820Z,25.83
2018-09-11T11:21:48.807Z,25.95
2018-09-11T11:22:48.795Z,25.98
2018-09-11T11:23:48.836Z,26.12
2018-09-11T11:24:48.776Z,26.08
2018-09-11T11:25:48.767Z,26.21
2018-09-11T11:26:48.807Z,26.27
2018-09-11T11:27:48.741Z,26.30
2018-09-11T11:28:48.735Z,26.33
2018-09-11T11:29:48.795Z,26.51
2018-09-11T11:30:48.712Z,26.64
2018-09-11T11:31:48.696Z,26.64
2018-09-11T11:32:48.687Z,26.60
2018-09-11T11:33:48.676Z,26.65
2018-09-11T11:34:48.667Z,26.68
2018-09-11T11:35:48.718Z,26.73
2018-09-11T11:36:48.711Z,26.90
2018-09-11T11:37:48.634Z,26.97
2018-09-11T11:38:48.623Z,26.95
2018-09-11T11:39:48.619Z,26.94
2018-09-11T11:40:48.607Z,26.88
2018-09-11T11:41:48.655Z,26.93
2018-09-11T11:42:48.638Z,26.90
2018-09-11T11:43:48.697Z,27.01
2018-09-11T11:44:48.706Z,27.10
2018-09-11T11:45:48.569Z,27.19
2018-09-11T11:46:48.552Z,27.03
2018-09-11T11:47:48.613Z,27.01
2018-09-11T11:48:48.568Z,26.90
2018-09-11T11:49:48.517Z,26.94
2018-09-11T11:50:48.494Z,27.04
2018-09-11T11:51:48.508Z,27.05
2018-09-11T11:52:48.496Z,27.23
2018-09-11T11:53:48.501Z,27.17
2018-09-11T11:54:48.457Z,27.20
2018-09-11T11:55:48.441Z,27.31
2018-09-11T11:56:48.432Z,27.45
2018-09-11T11:57:48.427Z,27.54
2018-09-11T11:58:48.436Z,27.75
2018-09-11T11:59:48.435Z,27.61
2018-09-11T12:00:48.392Z,27.73
2018-09-11T12:01:48.449Z,27.78
2018-09-11T12:02:48.373Z,27.83
2018-09-11T12:03:48.363Z,27.97
2018-09-11T12:04:48.356Z,27.80
2018-09-11T12:05:48.378Z,27.91
2018-09-11T12:06:48.352Z,28.05
2018-09-11T12:07:48.367Z,28.32
2018-09-11T12:08:48.319Z,28.59
2018-09-11T12:09:48.300Z,28.57
2018-09-11T12:10:48.341Z,28.49
2018-09-11T12:11:48.327Z,28.50
2018-09-11T12:12:48.277Z,28.52
2018-09-11T12:13:48.255Z,28.77
2018-09-11T12:14:48.259Z,28.83
2018-09-11T12:15:48.242Z,29.04
2018-09-11T12:16:48.286Z,29.24
2018-09-11T12:17:48.266Z,29.59
2018-09-11T12:18:48.201Z,29.77
2018-09-11T12:19:48.216Z,29.92
2018-09-11T12:20:48.178Z,29.92
2018-09-11T12:21:48.176Z,30.02
2018-09-11T12:22:48.162Z,30.21
2018-09-11T12:23:48.181Z,30.43
2018-09-11T12:24:48.152Z,30.22
2018-09-11T12:25:48.133Z,30.10
2018-09-11T12:26:48.137Z,30.40
2018-09-11T12:27:48.118Z,30.55
2018-09-11T12:28:48.098Z,30.29
2018-09-11T12:29:48.130Z,30.15
2018-09-11T12:30:48.078Z,30.28
2018-09-11T12:31:48.090Z,30.28
2018-09-11T12:32:48.067Z,30.18
2018-09-11T12:33:48.053Z,30.13
2018-09-11T12:34:48.042Z,30.29
2018-09-11T12:35:48.070Z,30.05
2018-09-11T12:36:48.016Z,29.89
2018-09-11T12:37:48.027Z,29.78
2018-09-11T12:38:48.002Z,29.73
2018-09-11T12:39:47.986Z,29.84
2018-09-11T12:40:47.981Z,30.14
2018-09-11T12:41:47.996Z,30.11
2018-09-11T12:42:47.956Z,30.08
2018-09-11T12:43:47.960Z,30.05
2018-09-11T12:44:47.936Z,30.15
2018-09-11T12:45:47.966Z,30.15
2018-09-11T12:46:48.068Z,30.40
2018-09-11T12:47:48.121Z,30.52
2018-09-11T12:48:47.997Z,30.45
2018-09-11T12:49:47.899Z,30.40
2018-09-11T12:50:47.886Z,30.43
2018-09-11T12:51:47.913Z,30.48
2018-09-11T12:52:47.869Z,30.68